createdAt,value
2023-04-19T00:00:52.764Z,22.55
2023-04-19T00:03:38.034Z,22.58
2023-04-19T00:06:23.787Z,22.70
2023-04-19T00:09:09.098Z,22.60
2023-04-19T00:11:54.385Z,22.60
2023-04-19T00:14:39.741Z,22.60
2023-04-19T00:17:25.175Z,22.68
2023-04-19T00:20:10.631Z,22.39
2023-04-19T00:22:56.165Z,22.35
2023-04-19T00:25:41.730Z,22.46
2023-04-19T00:28:27.083Z,22.41
2023-04-19T00:31:12.735Z,22.59
2023-04-19T00:33:57.906Z,22.64
2023-04-19T00:36:44.552Z,22.55
2023-04-19T00:39:29.818Z,22.48
2023-04-19T00:42:17.336Z,22.61
2023-04-19T00:45:02.766Z,22.50
2023-04-19T00:47:47.781Z,22.56
2023-04-19T00:50:33.255Z,22.46
2023-04-19T00:53:18.701Z,22.48
2023-04-19T00:56:04.031Z,22.40
2023-04-19T00:58:49.531Z,22.49
2023-04-19T01:01:35.043Z,22.53
2023-04-19T01:04:20.659Z,22.60
2023-04-19T01:07:06.249Z,22.43
2023-04-19T01:09:51.576Z,22.44
2023-04-19T01:12:37.067Z,22.44
2023-04-19T01:15:22.437Z,22.29
2023-04-19T01:18:08.036Z,22.28
2023-04-19T01:20:53.132Z,22.55
2023-04-19T01:23:38.506Z,22.44
2023-04-19T01:26:23.887Z,22.49
2023-04-19T01:29:09.331Z,22.42
2023-04-19T01:31:54.846Z,22.34
2023-04-19T01:34:40.076Z,22.42
2023-04-19T01:37:27.977Z,22.24
2023-04-19T01:40:13.265Z,22.34
2023-04-19T01:42:58.655Z,22.31
2023-04-19T01:45:43.921Z,22.37
2023-04-19T01:48:29.413Z,22.35
2023-04-19T01:51:15.007Z,22.32
2023-04-19T01:54:00.379Z,22.29
2023-04-19T01:56:45.772Z,22.25
2023-04-19T01:59:31.015Z,22.30
2023-04-19T02:02:16.583Z,22.24
2023-04-19T02:05:01.846Z,22.17
2023-04-19T02:07:47.142Z,22.47
2023-04-19T02:10:32.098Z,22.43
2023-04-19T02:13:17.515Z,22.24
2023-04-19T02:16:02.859Z,22.29
2023-04-19T02:18:48.332Z,22.28
2023-04-19T02:21:33.616Z,22.20
2023-04-19T02:24:18.966Z,22.20
2023-04-19T02:27:04.296Z,22.29
2023-04-19T02:29:50.286Z,22.06
2023-04-19T02:32:35.586Z,22.15
2023-04-19T02:35:21.016Z,22.47
2023-04-19T02:38:06.074Z,22.13
2023-04-19T02:40:51.375Z,22.10
2023-04-19T02:43:36.900Z,22.16
2023-04-19T02:46:22.201Z,22.31
2023-04-19T02:49:07.428Z,22.33
2023-04-19T02:51:52.855Z,22.14
2023-04-19T02:54:38.110Z,22.05
2023-04-19T02:57:23.532Z,22.15
2023-04-19T03:00:08.969Z,22.21
2023-04-19T03:02:54.348Z,22.45
2023-04-19T03:05:39.775Z,22.28
2023-04-19T03:08:24.877Z,22.17
2023-04-19T03:11:10.319Z,22.27
2023-04-19T03:13:55.597Z,22.32
2023-04-19T03:16:41.099Z,22.20
2023-04-19T03:19:26.508Z,22.31
2023-04-19T03:22:11.322Z,22.47
2023-04-19T03:24:56.754Z,22.46
2023-04-19T03:27:42.198Z,22.40
2023-04-19T03:30:27.488Z,22.37
2023-04-19T03:33:12.978Z,22.22
2023-04-19T03:35:58.385Z,22.07
2023-04-19T03:38:43.895Z,22.11
2023-04-19T03:41:29.386Z,22.15
2023-04-19T03:44:14.897Z,22.06
2023-04-19T03:47:00.154Z,22.15
2023-04-19T03:49:45.594Z,22.20
2023-04-19T03:52:30.965Z,22.25
2023-04-19T03:55:16.471Z,22.10
2023-04-19T03:58:01.709Z,22.04
2023-04-19T04:00:47.084Z,22.15
2023-04-19T04:03:32.466Z,22.25
2023-04-19T04:06:17.930Z,22.14
2023-04-19T04:09:03.379Z,22.34
2023-04-19T04:11:48.793Z,22.33
2023-04-19T04:14:33.859Z,22.27
2023-04-19T04:17:19.312Z,22.16
2023-04-19T04:20:04.567Z,22.22
2023-04-19T04:22:49.969Z,22.24
2023-04-19T04:25:35.357Z,22.21
2023-04-19T04:28:20.787Z,22.19
2023-04-19T04:31:05.932Z,22.04
2023-04-19T04:33:51.314Z,22.14
2023-04-19T04:36:36.266Z,22.31
2023-04-19T04:39:21.058Z,22.14
2023-04-19T04:42:06.330Z,22.10
2023-04-19T04:44:51.343Z,22.05
2023-04-19T04:47:36.631Z,22.17
2023-04-19T04:50:22.064Z,22.21
2023-04-19T04:53:07.366Z,22.15
2023-04-19T04:55:52.732Z,22.04
2023-04-19T04:58:38.165Z,22.03
2023-04-19T05:01:23.569Z,22.14
2023-04-19T05:04:09.077Z,22.02
2023-04-19T05:06:54.436Z,22.14
2023-04-19T05:09:39.759Z,22.11
2023-04-19T05:12:25.142Z,21.89
2023-04-19T05:15:10.474Z,22.15
2023-04-19T05:17:56.198Z,21.89
2023-04-19T05:20:41.399Z,22.11
2023-04-19T05:23:26.549Z,22.11
2023-04-19T05:26:11.970Z,22.21
2023-04-19T05:28:57.353Z,22.21
2023-04-19T05:31:42.827Z,22.16
2023-04-19T05:34:28.200Z,21.96
2023-04-19T05:37:13.535Z,22.05
2023-04-19T05:39:58.938Z,22.18
2023-04-19T05:42:44.426Z,22.11
2023-04-19T05:45:29.849Z,21.89
2023-04-19T05:48:15.179Z,21.92
2023-04-19T05:51:00.563Z,22.06
2023-04-19T05:53:45.848Z,21.90
2023-04-19T05:56:31.240Z,22.14
2023-04-19T05:59:16.665Z,22.09
2023-04-19T06:02:02.306Z,21.97
2023-04-19T06:04:47.738Z,22.18
2023-04-19T06:07:34.338Z,21.99
2023-04-19T06:10:28.784Z,21.93
2023-04-19T06:13:19.307Z,22.12
2023-04-19T06:16:04.807Z,22.02
2023-04-19T06:18:50.089Z,21.93
2023-04-19T06:21:35.157Z,22.12
2023-04-19T06:24:20.585Z,22.00
2023-04-19T06:27:05.628Z,22.07
2023-04-19T06:29:51.362Z,22.30
2023-04-19T06:32:36.907Z,22.01
2023-04-19T06:35:22.083Z,22.04
2023-04-19T06:38:07.455Z,22.15
2023-04-19T06:40:52.816Z,22.25
2023-04-19T06:43:38.352Z,22.51
2023-04-19T06:46:23.783Z,22.41
2023-04-19T06:49:09.018Z,22.31
2023-04-19T06:51:54.439Z,22.23
2023-04-19T06:54:39.764Z,22.27
2023-04-19T06:57:25.206Z,22.30
2023-04-19T07:00:10.813Z,22.27
2023-04-19T07:02:56.338Z,22.36
2023-04-19T07:05:41.757Z,22.30
2023-04-19T07:08:35.076Z,22.26
2023-04-19T07:11:28.030Z,22.41
2023-04-19T07:14:13.593Z,22.30
2023-04-19T07:16:58.825Z,22.20
2023-04-19T07:19:47.013Z,22.40
2023-04-19T07:22:32.248Z,22.42
2023-04-19T07:25:17.791Z,22.37
2023-04-19T07:28:03.064Z,22.38
2023-04-19T07:30:48.446Z,22.35
2023-04-19T07:33:33.774Z,22.43
2023-04-19T07:36:18.922Z,22.48
2023-04-19T07:39:04.155Z,22.53
2023-04-19T07:41:49.509Z,22.53
2023-04-19T07:44:35.027Z,22.46
2023-04-19T07:47:20.315Z,22.48
2023-04-19T07:50:05.735Z,22.44
2023-04-19T07:52:51.268Z,22.47
2023-04-19T07:55:36.482Z,22.48
2023-04-19T07:58:21.854Z,22.38
2023-04-19T08:01:06.916Z,22.48
2023-04-19T08:03:52.542Z,22.48
2023-04-19T08:06:37.931Z,22.49
2023-04-19T08:09:23.356Z,22.57
2023-04-19T08:12:09.303Z,22.54
2023-04-19T08:15:04.822Z,22.48
2023-04-19T08:17:56.099Z,22.58
2023-04-19T08:20:41.604Z,22.64
2023-04-19T08:23:32.083Z,22.52
2023-04-19T08:26:26.905Z,22.49
2023-04-19T08:29:12.210Z,22.45
2023-04-19T08:31:57.768Z,22.42
2023-04-19T08:34:42.927Z,22.60
2023-04-19T08:37:28.429Z,22.44
2023-04-19T08:40:13.800Z,22.67
2023-04-19T08:42:59.007Z,22.52
2023-04-19T08:45:44.277Z,22.29
2023-04-19T08:48:29.579Z,22.37
2023-04-19T08:51:14.779Z,22.54
2023-04-19T08:54:00.169Z,22.73
2023-04-19T08:56:45.632Z,22.70
2023-04-19T08:59:30.925Z,22.80
2023-04-19T09:02:16.434Z,22.81
2023-04-19T09:05:01.936Z,22.59
2023-04-19T09:07:47.073Z,22.68
2023-04-19T09:10:32.362Z,22.71
2023-04-19T09:13:17.676Z,22.64
2023-04-19T09:16:02.802Z,22.76
2023-04-19T09:18:59.780Z,22.63
2023-04-19T09:21:48.049Z,22.84
2023-04-19T09:24:57.482Z,22.85
2023-04-19T09:27:38.768Z,22.78
2023-04-19T09:30:32.604Z,22.65
2023-04-19T09:33:21.662Z,22.89
2023-04-19T09:36:06.880Z,22.84
2023-04-19T09:38:52.269Z,22.84
2023-04-19T09:41:39.566Z,22.81
2023-04-19T09:47:13.785Z,22.81
2023-04-19T09:49:59.511Z,22.99
2023-04-19T09:52:45.685Z,22.86
2023-04-19T09:55:38.350Z,22.81
2023-04-19T09:58:41.668Z,22.90
2023-04-19T10:01:31.745Z,22.52
2023-04-19T10:07:25.359Z,22.66
2023-04-19T10:10:19.625Z,22.81
2023-04-19T10:13:19.133Z,22.56
2023-04-19T10:16:18.201Z,22.75
2023-04-19T10:19:04.289Z,22.81
2023-04-19T10:21:49.671Z,22.61
2023-04-19T10:24:34.647Z,22.57
2023-04-19T10:27:19.828Z,22.58
2023-04-19T10:30:07.014Z,22.75
2023-04-19T10:32:52.983Z,22.92
2023-04-19T10:35:38.218Z,22.83
2023-04-19T10:38:23.438Z,22.81
2023-04-19T10:41:09.038Z,22.76
2023-04-19T10:43:54.648Z,22.72
2023-04-19T10:46:40.078Z,22.84
2023-04-19T10:49:25.640Z,22.91
2023-04-19T10:52:10.963Z,22.86
2023-04-19T10:54:56.409Z,22.79
2023-04-19T10:57:41.863Z,22.80
2023-04-19T11:00:27.276Z,22.69
2023-04-19T11:03:12.353Z,22.75
2023-04-19T11:05:57.586Z,22.66
2023-04-19T11:08:43.035Z,22.70
2023-04-19T11:11:28.231Z,22.82
2023-04-19T11:14:13.283Z,22.71
2023-04-19T11:16:58.834Z,22.79
2023-04-19T11:19:43.983Z,22.80
2023-04-19T11:22:30.686Z,22.78
2023-04-19T11:25:15.993Z,22.60
2023-04-19T11:28:01.464Z,22.63
2023-04-19T11:30:46.862Z,22.69
2023-04-19T11:33:32.291Z,22.73
2023-04-19T11:36:17.798Z,22.81
2023-04-19T11:39:02.992Z,22.81
2023-04-19T11:41:48.288Z,22.54
2023-04-19T11:44:33.785Z,22.64
2023-04-19T11:47:19.331Z,22.65
2023-04-19T11:50:04.786Z,22.84
2023-04-19T11:52:50.381Z,22.70
2023-04-19T11:55:35.685Z,22.87
2023-04-19T11:58:20.739Z,22.75
2023-04-19T12:01:06.268Z,22.84
2023-04-19T12:03:52.000Z,22.61
2023-04-19T12:06:37.255Z,22.64
2023-04-19T12:09:24.031Z,22.73
2023-04-19T12:12:11.777Z,22.62
2023-04-19T12:14:56.794Z,22.69
2023-04-19T12:17:54.664Z,22.88
2023-04-19T12:20:42.333Z,22.82
2023-04-19T12:23:27.728Z,22.77
2023-04-19T12:26:13.096Z,22.53
2023-04-19T12:28:58.601Z,22.82
2023-04-19T12:31:44.015Z,22.93
2023-04-19T12:34:29.324Z,22.87
2023-04-19T12:37:14.675Z,22.73
2023-04-19T12:40:00.224Z,22.71
2023-04-19T12:42:45.456Z,22.78
2023-04-19T12:45:30.495Z,22.89
2023-04-19T12:48:15.850Z,22.84
2023-04-19T12:51:01.260Z,22.93
2023-04-19T12:53:46.459Z,22.92
2023-04-19T12:56:31.838Z,22.89
2023-04-19T12:59:17.681Z,23.08
2023-04-19T13:02:03.284Z,22.96
2023-04-19T13:04:49.107Z,22.83
2023-04-19T13:07:34.581Z,23.12
2023-04-19T13:10:20.024Z,23.16
2023-04-19T13:13:05.375Z,23.07
2023-04-19T13:15:50.544Z,23.05
2023-04-19T13:18:35.998Z,23.07
2023-04-19T13:21:21.304Z,22.98
2023-04-19T13:24:06.651Z,23.29
2023-04-19T13:26:51.989Z,23.09
2023-04-19T13:29:37.345Z,22.97
2023-04-19T13:32:22.671Z,23.09
2023-04-19T13:35:07.788Z,23.24
2023-04-19T13:37:53.133Z,23.00
2023-04-19T13:40:38.485Z,23.24
2023-04-19T13:43:23.954Z,23.14
2023-04-19T13:46:09.235Z,23.21
2023-04-19T13:48:56.349Z,23.24
2023-04-19T13:51:49.417Z,22.96
2023-04-19T13:54:35.974Z,22.80
2023-04-19T13:57:21.326Z,23.16
2023-04-19T14:00:06.564Z,23.06
2023-04-19T14:02:52.724Z,22.87
2023-04-19T14:05:37.944Z,23.03
2023-04-19T14:08:23.511Z,22.91
2023-04-19T14:11:08.730Z,23.11
2023-04-19T14:13:54.113Z,22.84
2023-04-19T14:16:39.334Z,22.83
2023-04-19T14:19:24.509Z,22.81
2023-04-19T14:22:09.994Z,22.74
2023-04-19T14:24:55.257Z,22.65
2023-04-19T14:27:40.616Z,22.46
2023-04-19T14:30:25.670Z,22.53
2023-04-19T14:33:11.181Z,22.49
2023-04-19T14:35:56.724Z,22.64
2023-04-19T14:38:41.697Z,22.79
2023-04-19T14:41:27.111Z,23.03
2023-04-19T14:44:12.292Z,23.17
2023-04-19T14:46:57.711Z,23.26
2023-04-19T14:49:42.768Z,23.52
2023-04-19T14:52:28.089Z,23.53
2023-04-19T14:55:13.622Z,23.76
2023-04-19T14:57:59.043Z,23.98
2023-04-19T15:00:44.217Z,24.28
2023-04-19T15:03:29.569Z,24.49
2023-04-19T15:06:15.003Z,24.56
2023-04-19T15:09:00.378Z,24.59
2023-04-19T15:11:45.677Z,24.77
2023-04-19T15:14:30.798Z,24.83
2023-04-19T15:17:16.108Z,24.76
2023-04-19T15:20:01.486Z,24.93
2023-04-19T15:22:46.963Z,24.94
2023-04-19T15:25:32.269Z,24.98
2023-04-19T15:28:17.688Z,24.98
2023-04-19T15:31:03.033Z,24.19
2023-04-19T15:33:48.376Z,24.56
2023-04-19T15:36:33.687Z,24.26
2023-04-19T15:39:19.249Z,23.93
2023-04-19T15:42:04.627Z,23.53
2023-04-19T15:44:51.056Z,24.11
2023-04-19T15:47:36.482Z,23.86
2023-04-19T15:50:21.691Z,24.57
2023-04-19T15:53:06.968Z,24.02
2023-04-19T15:55:53.308Z,23.96
2023-04-19T15:58:39.433Z,24.09
2023-04-19T16:01:24.613Z,24.13
2023-04-19T16:04:10.148Z,24.21
2023-04-19T16:06:55.385Z,24.28
2023-04-19T16:09:40.925Z,24.44
2023-04-19T16:12:26.280Z,24.72
2023-04-19T16:15:11.600Z,24.93
2023-04-19T16:17:56.686Z,24.91
2023-04-19T16:20:42.001Z,24.65
2023-04-19T16:23:27.383Z,24.24
2023-04-19T16:26:12.756Z,24.22
2023-04-19T16:28:58.283Z,24.40
2023-04-19T16:31:43.603Z,24.39
2023-04-19T16:34:28.822Z,24.31
2023-04-19T16:37:14.143Z,23.94
2023-04-19T16:39:59.611Z,23.52
2023-04-19T16:42:44.969Z,23.30
2023-04-19T16:45:30.188Z,23.11
2023-04-19T16:48:15.374Z,22.96
2023-04-19T16:51:00.776Z,22.92
2023-04-19T16:53:46.271Z,22.81
2023-04-19T16:56:31.554Z,23.13
2023-04-19T16:59:16.719Z,23.29
2023-04-19T17:02:02.668Z,23.33
2023-04-19T17:04:48.080Z,23.17
2023-04-19T17:07:34.004Z,23.08
2023-04-19T17:10:19.237Z,23.08
2023-04-19T17:13:04.671Z,23.20
2023-04-19T17:15:50.062Z,23.23
2023-04-19T17:18:35.364Z,23.18
2023-04-19T17:21:20.880Z,23.23
2023-04-19T17:24:06.229Z,23.14
2023-04-19T17:26:51.685Z,23.13
2023-04-19T17:29:37.200Z,23.04
2023-04-19T17:32:22.592Z,22.84
2023-04-19T17:35:07.899Z,22.89
2023-04-19T17:37:52.868Z,22.88
2023-04-19T17:40:38.150Z,22.76
2023-04-19T17:43:23.455Z,22.64
2023-04-19T17:46:08.823Z,22.63
2023-04-19T17:48:54.288Z,22.63
2023-04-19T17:51:48.950Z,22.53
2023-04-19T17:54:34.116Z,22.52
2023-04-19T17:57:19.577Z,22.69
2023-04-19T18:00:05.213Z,22.40
2023-04-19T18:02:50.724Z,22.50
2023-04-19T18:05:36.049Z,22.46
2023-04-19T18:08:21.548Z,22.24
2023-04-19T18:11:07.006Z,22.30
2023-04-19T18:13:52.407Z,22.67
2023-04-19T18:16:37.886Z,22.60
2023-04-19T18:19:23.341Z,22.64
2023-04-19T18:22:08.584Z,22.75
2023-04-19T18:24:54.162Z,22.63
2023-04-19T18:27:39.582Z,22.81
2023-04-19T18:30:24.918Z,22.91
2023-04-19T18:33:10.374Z,22.91
2023-04-19T18:35:55.791Z,22.82
2023-04-19T18:38:41.348Z,23.02
2023-04-19T18:41:26.747Z,22.94
2023-04-19T18:47:00.181Z,23.09
2023-04-19T18:49:55.598Z,22.89
2023-04-19T18:52:45.186Z,22.68
2023-04-19T18:55:30.225Z,22.69
2023-04-19T18:58:15.581Z,22.69
2023-04-19T19:01:01.368Z,22.71
2023-04-19T19:04:10.648Z,22.80
2023-04-19T19:06:52.330Z,22.80
2023-04-19T19:09:37.381Z,22.79
2023-04-19T19:12:22.627Z,22.73
2023-04-19T19:15:08.363Z,22.79
2023-04-19T19:17:53.725Z,22.90
2023-04-19T19:20:39.327Z,22.61
2023-04-19T19:23:35.522Z,22.74
2023-04-19T19:26:23.328Z,22.89
2023-04-19T19:29:09.468Z,22.88
2023-04-19T19:31:54.892Z,22.83
2023-04-19T19:34:51.265Z,22.68
2023-04-19T19:37:40.844Z,22.82
2023-04-19T19:40:29.136Z,22.58
2023-04-19T19:43:16.732Z,22.71
2023-04-19T19:46:02.603Z,22.66
2023-04-19T19:48:52.588Z,22.80
2023-04-19T19:51:57.032Z,22.73
2023-04-19T19:54:44.166Z,22.83
2023-04-19T20:00:41.963Z,22.79
2023-04-19T20:03:36.267Z,22.92
2023-04-19T20:09:11.334Z,22.83
2023-04-19T20:11:56.784Z,22.80
2023-04-19T20:14:42.290Z,22.68
2023-04-19T20:17:27.666Z,22.83
2023-04-19T20:20:13.300Z,22.83
2023-04-19T20:22:58.556Z,22.83
2023-04-19T20:25:44.154Z,22.83
2023-04-19T20:28:29.937Z,22.83
2023-04-19T20:31:15.713Z,22.73
2023-04-19T20:34:01.443Z,22.79
2023-04-19T20:36:46.961Z,22.66
2023-04-19T20:39:32.161Z,22.78
2023-04-19T20:42:17.645Z,22.78
2023-04-19T20:45:04.869Z,22.70
2023-04-19T20:47:50.153Z,22.75
2023-04-19T20:50:35.352Z,22.63
2023-04-19T20:53:20.776Z,22.57
2023-04-19T20:56:06.211Z,22.62
2023-04-19T20:58:51.451Z,22.66
2023-04-19T21:01:36.860Z,22.67
2023-04-19T21:04:22.292Z,22.67
2023-04-19T21:07:07.649Z,22.88
2023-04-19T21:09:53.095Z,22.64
2023-04-19T21:12:38.413Z,22.80
2023-04-19T21:15:23.629Z,22.76
2023-04-19T21:18:09.532Z,22.70
2023-04-19T21:20:54.891Z,22.79
2023-04-19T21:23:40.209Z,22.86
2023-04-19T21:26:25.374Z,22.69
2023-04-19T21:29:10.767Z,22.68
2023-04-19T21:31:56.211Z,22.79
2023-04-19T21:34:41.766Z,22.62
2023-04-19T21:37:27.195Z,22.77
2023-04-19T21:40:12.473Z,22.73
2023-04-19T21:42:57.867Z,22.77
2023-04-19T21:45:43.117Z,22.78
2023-04-19T21:48:28.624Z,22.68
2023-04-19T21:51:14.029Z,22.71
2023-04-19T21:53:59.426Z,22.65
2023-04-19T21:56:44.685Z,22.68
2023-04-19T21:59:29.743Z,22.58
2023-04-19T22:02:15.210Z,22.60
2023-04-19T22:05:00.476Z,22.57
2023-04-19T22:07:45.949Z,22.66
2023-04-19T22:10:30.912Z,22.53
2023-04-19T22:13:16.294Z,22.68
2023-04-19T22:16:01.716Z,22.62
2023-04-19T22:18:46.653Z,22.67
2023-04-19T22:21:32.093Z,22.47
2023-04-19T22:24:17.533Z,22.61
2023-04-19T22:27:03.005Z,22.58
2023-04-19T22:29:48.285Z,22.61
2023-04-19T22:32:33.694Z,22.53
2023-04-19T22:35:20.709Z,22.58
2023-04-19T22:38:07.638Z,22.57
2023-04-19T22:40:52.842Z,22.50
2023-04-19T22:43:38.389Z,22.38
2023-04-19T22:46:23.630Z,22.53
2023-04-19T22:49:09.169Z,22.54
2023-04-19T22:51:54.343Z,22.50
2023-04-19T22:54:39.301Z,22.67
2023-04-19T22:57:24.489Z,22.54
2023-04-19T23:00:09.899Z,22.60
2023-04-19T23:02:55.245Z,22.64
2023-04-19T23:05:40.352Z,22.61
2023-04-19T23:08:25.247Z,22.54
2023-04-19T23:11:10.650Z,22.52
2023-04-19T23:13:56.051Z,22.46
2023-04-19T23:16:41.468Z,22.52
2023-04-19T23:19:26.804Z,22.56
2023-04-19T23:22:12.057Z,22.59
2023-04-19T23:24:57.291Z,22.31
2023-04-19T23:27:42.528Z,22.44
2023-04-19T23:30:27.848Z,22.55
2023-04-19T23:33:13.356Z,22.53
2023-04-19T23:35:58.701Z,22.32
2023-04-19T23:38:43.967Z,22.50
2023-04-19T23:41:28.958Z,22.46
2023-04-19T23:44:14.348Z,22.54
2023-04-19T23:46:59.865Z,22.58
2023-04-19T23:49:45.034Z,22.44
2023-04-19T23:52:30.238Z,22.43
2023-04-19T23:55:15.705Z,22.59
2023-04-19T23:58:01.084Z,22.52
